Time;durP1;ratioP1;P1;durP2;ratioP2;P2;SDS_P1;SDS_P2;PMS_P1;PMS_P2;Temp;Humidity;BMP_temperature;BMP_pressure;BME280_temperature;BME280_humidity;BME280_pressure;Samples;Min_cycle;Max_cycle;Signal;HPM_P1;HPM_P2
2021/09/20 00:02:06;;;;;;;8.32;5.57;;;13.70;93.50;;;;;;5029467;28;20079;-67
2021/09/20 00:04:32;;;;;;;7.20;5.50;;;13.70;93.60;;;;;;5030380;28;20021;-68
2021/09/20 00:06:57;;;;;;;8.27;5.63;;;13.80;93.60;;;;;;5028902;28;20037;-67
2021/09/20 00:09:23;;;;;;;6.78;5.70;;;13.70;93.50;;;;;;5029466;28;20525;-67
2021/09/20 00:11:49;;;;;;;8.07;5.80;;;13.70;93.50;;;;;;5029616;28;20111;-67
2021/09/20 00:14:14;;;;;;;6.25;5.25;;;13.60;93.60;;;;;;5027437;28;20037;-67
2021/09/20 00:16:40;;;;;;;6.43;5.35;;;13.60;93.60;;;;;;5028768;28;20038;-67
2021/09/20 00:19:05;;;;;;;6.57;5.82;;;13.60;93.70;;;;;;5027786;28;20021;-67
2021/09/20 00:21:31;;;;;;;7.82;5.65;;;13.60;93.70;;;;;;5024833;28;20029;-66
2021/09/20 00:23:56;;;;;;;7.32;6.20;;;13.60;93.70;;;;;;5028972;28;20029;-66
2021/09/20 00:26:22;;;;;;;5.72;5.03;;;13.60;93.70;;;;;;5029375;28;20064;-68
2021/09/20 00:28:47;;;;;;;8.35;5.80;;;13.60;93.70;;;;;;5028625;28;20478;-68
2021/09/20 00:31:13;;;;;;;6.80;5.38;;;13.60;93.70;;;;;;5028826;28;20042;-67
2021/09/20 00:33:39;;;;;;;6.70;5.80;;;13.60;93.70;;;;;;5026094;28;20037;-67
2021/09/20 00:36:04;;;;;;;6.97;5.70;;;13.60;93.70;;;;;;5027956;28;20120;-67
2021/09/20 00:38:30;;;;;;;6.28;5.53;;;13.60;93.70;;;;;;5026163;28;20477;-67
2021/09/20 00:40:56;;;;;;;6.85;5.55;;;13.60;93.70;;;;;;5029046;28;20029;-67
2021/09/20 00:43:22;;;;;;;6.80;5.78;;;13.60;93.80;;;;;;5028730;28;20613;-67
2021/09/20 00:45:47;;;;;;;7.65;6.07;;;13.60;93.80;;;;;;5030091;28;20055;-67
2021/09/20 00:48:13;;;;;;;7.07;6.03;;;13.60;93.80;;;;;;5027762;28;21658;-67
2021/09/20 00:50:39;;;;;;;7.28;6.18;;;13.60;93.80;;;;;;5028086;28;20048;-66
2021/09/20 00:53:05;;;;;;;6.78;5.68;;;13.60;93.70;;;;;;5026693;28;20022;-67
2021/09/20 00:55:31;;;;;;;7.30;5.63;;;13.60;93.80;;;;;;5029642;28;20111;-66
2021/09/20 00:57:58;;;;;;;7.30;5.78;;;13.60;93.80;;;;;;5029010;28;20028;-66
2021/09/20 01:00:25;;;;;;;8.18;5.55;;;13.60;93.90;;;;;;5024436;28;20037;-66
2021/09/20 01:02:51;;;;;;;7.97;6.13;;;13.60;93.80;;;;;;5026862;28;20370;-67
2021/09/20 01:05:16;;;;;;;11.38;6.40;;;13.60;93.80;;;;;;5028902;28;20118;-68
2021/09/20 01:07:42;;;;;;;7.28;5.63;;;13.60;93.80;;;;;;5026577;28;20033;-66
2021/09/20 01:10:09;;;;;;;6.65;5.45;;;13.60;93.80;;;;;;5009671;28;20452;-67
2021/09/20 01:12:35;;;;;;;8.60;5.82;;;13.60;93.80;;;;;;5029457;28;20030;-67
2021/09/20 01:15:02;;;;;;;6.85;5.45;;;13.60;93.90;;;;;;5025890;28;20387;-66
2021/09/20 01:17:28;;;;;;;7.30;6.00;;;13.60;93.90;;;;;;5026502;28;20080;-67
2021/09/20 01:19:53;;;;;;;7.00;5.63;;;13.60;93.90;;;;;;5029453;28;20021;-68
2021/09/20 01:22:21;;;;;;;8.05;5.95;;;13.60;94.00;;;;;;5025636;28;20022;-67
2021/09/20 01:24:48;;;;;;;7.10;6.03;;;13.60;93.90;;;;;;5026872;28;20029;-66
2021/09/20 01:27:17;;;;;;;6.65;5.75;;;13.60;93.90;;;;;;5026518;28;20095;-67
2021/09/20 01:29:43;;;;;;;7.82;6.05;;;13.60;93.90;;;;;;5027066;28;20044;-67
2021/09/20 01:32:09;;;;;;;7.00;6.15;;;13.60;93.90;;;;;;5029934;28;20342;-67
2021/09/20 01:34:35;;;;;;;6.93;6.18;;;13.60;93.90;;;;;;5026938;28;20065;-67
2021/09/20 01:37:02;;;;;;;6.20;5.50;;;13.60;93.90;;;;;;5027046;28;20025;-67
2021/09/20 01:39:30;;;;;;;6.90;5.80;;;13.50;93.90;;;;;;5025407;28;20033;-67
2021/09/20 01:41:57;;;;;;;8.80;6.38;;;13.50;93.90;;;;;;5028765;28;20029;-67
2021/09/20 01:44:22;;;;;;;8.43;6.65;;;13.50;93.90;;;;;;5029292;28;20021;-67
2021/09/20 01:46:50;;;;;;;7.57;6.43;;;13.50;94.10;;;;;;5029137;28;20400;-68
2021/09/20 01:49:16;;;;;;;7.22;6.03;;;13.50;93.90;;;;;;5032361;28;20031;-67
2021/09/20 01:51:43;;;;;;;9.05;6.18;;;13.50;94.00;;;;;;5030675;28;20021;-67
2021/09/20 01:54:08;;;;;;;7.43;6.45;;;13.40;94.00;;;;;;5025639;28;20081;-67
2021/09/20 01:56:35;;;;;;;8.68;6.85;;;13.50;94.00;;;;;;5030072;28;20064;-67
2021/09/20 01:59:02;;;;;;;7.70;6.55;;;13.50;94.00;;;;;;5032085;28;20034;-67
2021/09/20 02:01:28;;;;;;;7.60;6.05;;;13.40;94.00;;;;;;5031516;28;20140;-67
2021/09/20 02:03:54;;;;;;;7.88;6.60;;;13.40;94.10;;;;;;5031342;28;20029;-67
2021/09/20 02:06:21;;;;;;;8.70;6.70;;;13.40;94.10;;;;;;5033700;28;20041;-66
2021/09/20 02:08:48;;;;;;;7.22;6.45;;;13.40;94.10;;;;;;5030193;28;20501;-66
2021/09/20 02:11:14;;;;;;;7.47;6.38;;;13.40;94.10;;;;;;5011930;28;20034;-66
2021/09/20 02:13:40;;;;;;;7.13;6.40;;;13.40;94.10;;;;;;5031731;28;20037;-66
2021/09/20 02:16:05;;;;;;;9.57;6.53;;;13.40;94.10;;;;;;5030868;28;20028;-67
2021/09/20 02:18:31;;;;;;;10.35;6.80;;;13.30;94.10;;;;;;5029150;28;20029;-67
2021/09/20 02:20:57;;;;;;;6.90;5.80;;;13.40;94.20;;;;;;5030076;28;20045;-66
2021/09/20 02:23:23;;;;;;;8.00;6.93;;;13.40;94.20;;;;;;5031218;28;20038;-67
2021/09/20 02:25:48;;;;;;;9.45;6.57;;;13.40;94.20;;;;;;5032038;28;20040;-67
2021/09/20 02:28:14;;;;;;;9.43;6.53;;;13.40;94.20;;;;;;5030871;28;20037;-66
2021/09/20 02:30:40;;;;;;;8.20;6.40;;;13.30;94.20;;;;;;5030128;28;20123;-66
2021/09/20 02:33:07;;;;;;;10.90;6.55;;;13.30;94.20;;;;;;5030856;28;20107;-67
2021/09/20 02:35:33;;;;;;;8.20;6.30;;;13.30;94.20;;;;;;5031417;28;20478;-67
2021/09/20 02:37:59;;;;;;;8.30;6.43;;;13.30;94.20;;;;;;5029135;28;20109;-67
2021/09/20 02:40:24;;;;;;;9.65;6.85;;;13.30;94.20;;;;;;5029190;28;20079;-67
2021/09/20 02:42:50;;;;;;;8.10;6.80;;;13.30;94.20;;;;;;5029844;28;20441;-67
2021/09/20 02:45:16;;;;;;;10.23;6.88;;;13.30;94.20;;;;;;5031531;28;20056;-66
2021/09/20 02:47:42;;;;;;;10.43;6.82;;;13.30;94.30;;;;;;5030320;28;20465;-67
2021/09/20 02:50:09;;;;;;;7.90;6.38;;;13.30;94.30;;;;;;5027987;28;20057;-67
2021/09/20 02:52:34;;;;;;;9.27;6.68;;;13.30;94.50;;;;;;5030597;28;20108;-67
2021/09/20 02:55:00;;;;;;;9.18;6.65;;;13.30;94.30;;;;;;5027931;28;20117;-67
2021/09/20 02:57:26;;;;;;;10.07;7.07;;;13.30;94.30;;;;;;5031562;28;20037;-66
2021/09/20 02:59:51;;;;;;;9.38;6.90;;;13.30;94.30;;;;;;5030238;28;20027;-67
2021/09/20 03:02:17;;;;;;;10.90;7.55;;;13.30;94.30;;;;;;5031607;28;20083;-67
2021/09/20 03:04:43;;;;;;;8.38;6.95;;;13.30;94.40;;;;;;5030792;28;20540;-67
2021/09/20 03:07:09;;;;;;;8.65;6.82;;;13.30;94.40;;;;;;5029498;28;20093;-67
2021/09/20 03:09:34;;;;;;;9.60;7.13;;;13.30;94.40;;;;;;5031529;28;20063;-66
2021/09/20 03:12:00;;;;;;;8.75;7.45;;;13.30;94.40;;;;;;5032064;28;20385;-66
2021/09/20 03:14:25;;;;;;;9.20;7.13;;;13.30;94.30;;;;;;5031212;28;20025;-67
2021/09/20 03:16:51;;;;;;;11.80;7.40;;;13.30;94.30;;;;;;5031192;28;20033;-66
2021/09/20 03:19:17;;;;;;;9.05;7.43;;;13.20;94.40;;;;;;5032130;28;20032;-66
2021/09/20 03:21:43;;;;;;;8.23;6.85;;;13.20;94.40;;;;;;5021707;28;20039;-67
2021/09/20 03:24:10;;;;;;;10.43;7.65;;;13.20;94.40;;;;;;5026643;28;20045;-67
2021/09/20 03:26:37;;;;;;;10.77;8.30;;;13.20;94.50;;;;;;5030784;28;20022;-66
2021/09/20 03:29:03;;;;;;;10.80;7.53;;;13.20;94.50;;;;;;5030094;28;20032;-66
2021/09/20 03:31:28;;;;;;;10.07;7.55;;;13.20;94.40;;;;;;5029265;28;20084;-66
2021/09/20 03:33:54;;;;;;;10.18;7.28;;;13.20;94.40;;;;;;5030823;28;20023;-66
2021/09/20 03:36:20;;;;;;;10.07;7.60;;;13.20;94.50;;;;;;5030150;28;20029;-67
2021/09/20 03:38:45;;;;;;;9.63;7.43;;;13.20;94.50;;;;;;5031262;28;20044;-66
2021/09/20 03:41:11;;;;;;;10.63;7.60;;;13.20;94.50;;;;;;5032052;28;20365;-67
2021/09/20 03:43:37;;;;;;;10.00;7.82;;;13.20;94.50;;;;;;5030224;28;20026;-66
2021/09/20 03:46:02;;;;;;;9.65;7.88;;;13.20;94.50;;;;;;5025991;28;20379;-66
2021/09/20 03:48:28;;;;;;;9.23;7.63;;;13.20;94.50;;;;;;5020795;28;20033;-66
2021/09/20 03:50:53;;;;;;;12.07;7.78;;;13.20;94.40;;;;;;5030500;28;20067;-67
2021/09/20 03:53:19;;;;;;;12.75;8.00;;;13.10;94.40;;;;;;5053246;22;20029;-67
2021/09/20 03:55:45;;;;;;;9.05;7.35;;;13.10;94.30;;;;;;5036765;28;20033;-67
2021/09/20 03:58:11;;;;;;;10.82;8.27;;;13.10;94.40;;;;;;5038994;28;20497;-67
2021/09/20 04:00:36;;;;;;;11.50;8.27;;;13.00;94.40;;;;;;5035560;28;20022;-67
2021/09/20 04:03:02;;;;;;;12.68;8.13;;;13.00;94.40;;;;;;5040799;28;20432;-67
2021/09/20 04:05:27;;;;;;;9.82;7.40;;;13.00;94.30;;;;;;5049797;28;20027;-67
2021/09/20 04:07:53;;;;;;;12.25;7.68;;;12.90;94.30;;;;;;5049919;28;20123;-67
2021/09/20 04:10:18;;;;;;;11.57;7.20;;;12.90;94.50;;;;;;5047066;28;20420;-67
2021/09/20 04:12:44;;;;;;;9.82;8.32;;;12.90;94.60;;;;;;5032309;28;20484;-67
2021/09/20 04:15:11;;;;;;;10.55;8.68;;;12.90;94.60;;;;;;5047550;28;20507;-67
2021/09/20 04:17:36;;;;;;;10.70;7.70;;;12.90;94.60;;;;;;5046297;28;20112;-68
2021/09/20 04:20:04;;;;;;;10.95;7.72;;;12.90;94.70;;;;;;5048563;28;20112;-67
2021/09/20 04:22:30;;;;;;;9.80;7.93;;;12.90;94.60;;;;;;5048610;28;20114;-67
2021/09/20 04:24:55;;;;;;;9.20;7.82;;;12.90;94.70;;;;;;5048408;28;20712;-67
2021/09/20 04:27:21;;;;;;;10.35;7.90;;;12.90;94.70;;;;;;5048884;28;20036;-67
2021/09/20 04:29:48;;;;;;;10.02;8.05;;;12.90;94.70;;;;;;5049337;28;20025;-67
2021/09/20 04:32:14;;;;;;;10.73;7.80;;;12.90;94.60;;;;;;5048178;28;20090;-67
2021/09/20 04:34:39;;;;;;;9.48;7.63;;;12.90;94.50;;;;;;5048927;28;20036;-67
2021/09/20 04:37:05;;;;;;;10.10;8.32;;;12.80;94.50;;;;;;5048568;28;20499;-67
2021/09/20 04:39:30;;;;;;;10.80;7.63;;;12.80;94.60;;;;;;5047628;28;20061;-67
2021/09/20 04:41:56;;;;;;;11.65;8.35;;;12.80;94.70;;;;;;5050361;28;20096;-67
2021/09/20 04:44:21;;;;;;;10.27;8.13;;;12.80;94.80;;;;;;5030682;28;20472;-67
2021/09/20 04:46:48;;;;;;;11.27;8.75;;;12.80;94.80;;;;;;5048260;28;20210;-67
2021/09/20 04:49:14;;;;;;;11.13;8.25;;;12.90;94.90;;;;;;5031420;28;20485;-67
2021/09/20 04:51:39;;;;;;;11.13;8.18;;;12.90;94.80;;;;;;5047948;28;20029;-68
2021/09/20 04:54:05;;;;;;;10.65;7.95;;;12.80;94.80;;;;;;5039674;28;20044;-68
2021/09/20 04:56:31;;;;;;;11.70;8.60;;;12.80;94.80;;;;;;5049651;28;20086;-67
2021/09/20 04:58:57;;;;;;;10.45;8.30;;;12.90;94.90;;;;;;5032151;28;20025;-67
2021/09/20 05:01:22;;;;;;;12.52;8.50;;;12.90;94.90;;;;;;5049030;28;20440;-67
2021/09/20 05:03:48;;;;;;;11.07;8.05;;;12.90;94.90;;;;;;5047523;28;20364;-67
2021/09/20 05:06:13;;;;;;;11.48;8.50;;;12.90;94.90;;;;;;5040405;28;20033;-67
2021/09/20 05:08:39;;;;;;;11.70;8.13;;;12.90;95.00;;;;;;5049410;28;20156;-67
2021/09/20 05:11:05;;;;;;;10.38;7.75;;;12.90;95.00;;;;;;5028511;28;20026;-67
2021/09/20 05:13:30;;;;;;;9.38;7.13;;;12.90;95.00;;;;;;5046745;28;20052;-67
2021/09/20 05:15:56;;;;;;;9.13;7.72;;;13.00;95.00;;;;;;5031218;28;20033;-67
2021/09/20 05:18:22;;;;;;;11.70;8.55;;;12.90;95.00;;;;;;5028779;28;20036;-67
2021/09/20 05:20:47;;;;;;;10.20;7.78;;;13.00;95.10;;;;;;5046949;28;20028;-67
2021/09/20 05:23:13;;;;;;;12.73;8.48;;;13.00;95.00;;;;;;5047533;28;20078;-67
2021/09/20 05:25:39;;;;;;;14.02;9.23;;;12.90;95.00;;;;;;5043937;28;20079;-67
2021/09/20 05:28:04;;;;;;;12.60;8.05;;;12.90;95.00;;;;;;5045836;28;20036;-67
2021/09/20 05:30:30;;;;;;;12.80;8.75;;;12.90;95.30;;;;;;5048949;28;20040;-67
2021/09/20 05:32:56;;;;;;;12.35;9.05;;;12.90;95.10;;;;;;5030706;28;20036;-67
2021/09/20 05:35:22;;;;;;;11.82;9.27;;;12.90;95.00;;;;;;5048697;28;20427;-67
2021/09/20 05:37:48;;;;;;;12.93;9.30;;;12.90;95.00;;;;;;5049426;28;20025;-67
2021/09/20 05:40:15;;;;;;;11.18;8.70;;;12.90;95.00;;;;;;5029495;28;20041;-67
2021/09/20 05:42:42;;;;;;;12.18;8.88;;;12.80;95.00;;;;;;5029057;28;20029;-67
2021/09/20 05:45:10;;;;;;;12.32;9.23;;;12.80;95.10;;;;;;5048884;28;20285;-67
2021/09/20 05:47:36;;;;;;;13.20;9.25;;;12.80;95.10;;;;;;5049077;28;20028;-67
2021/09/20 05:50:04;;;;;;;11.57;8.38;;;12.80;95.10;;;;;;5049235;28;20090;-67
2021/09/20 05:52:29;;;;;;;11.00;8.95;;;12.80;95.10;;;;;;5031205;28;20037;-68
2021/09/20 05:54:55;;;;;;;12.05;8.90;;;12.80;95.10;;;;;;5045711;28;20025;-67
2021/09/20 05:57:20;;;;;;;12.30;8.80;;;12.90;95.20;;;;;;5047750;28;20146;-67
2021/09/20 05:59:46;;;;;;;12.38;9.40;;;12.90;95.10;;;;;;5030677;28;20029;-67
2021/09/20 06:02:12;;;;;;;12.15;8.73;;;12.90;95.10;;;;;;5041330;28;20049;-67
2021/09/20 06:04:38;;;;;;;11.07;8.50;;;12.80;95.00;;;;;;5034140;28;20022;-67
2021/09/20 06:07:03;;;;;;;12.38;8.43;;;12.80;95.00;;;;;;5044023;28;20021;-67
2021/09/20 06:09:29;;;;;;;12.52;8.93;;;12.80;95.00;;;;;;5043174;28;20029;-67
2021/09/20 06:11:55;;;;;;;12.40;8.43;;;12.80;95.00;;;;;;5034911;28;20072;-67
2021/09/20 06:14:20;;;;;;;12.48;9.50;;;12.80;95.00;;;;;;5043510;28;20033;-67
2021/09/20 06:16:46;;;;;;;12.98;9.55;;;12.80;95.10;;;;;;5042591;28;20035;-67
2021/09/20 06:19:12;;;;;;;13.60;9.63;;;12.80;95.10;;;;;;5047435;28;20017;-67
2021/09/20 06:21:37;;;;;;;12.93;8.95;;;12.80;95.10;;;;;;5028161;28;20025;-67
2021/09/20 06:24:03;;;;;;;14.10;9.60;;;12.80;95.30;;;;;;5043512;28;20028;-67
2021/09/20 06:26:29;;;;;;;11.95;9.00;;;12.80;95.00;;;;;;5048460;28;20078;-67
2021/09/20 06:28:55;;;;;;;12.15;8.43;;;12.80;95.00;;;;;;5046517;28;20021;-67
2021/09/20 06:31:20;;;;;;;12.93;9.10;;;12.80;95.10;;;;;;5030698;28;20489;-67
2021/09/20 06:33:46;;;;;;;12.13;9.02;;;12.80;95.10;;;;;;5038149;28;20448;-67
2021/09/20 06:36:11;;;;;;;14.57;9.93;;;12.80;95.10;;;;;;5042940;28;20040;-67
2021/09/20 06:38:37;;;;;;;12.48;8.77;;;12.80;95.00;;;;;;5051516;28;20409;-67
2021/09/20 06:41:03;;;;;;;14.70;8.93;;;12.80;95.00;;;;;;5052272;28;20029;-67
2021/09/20 06:43:28;;;;;;;12.43;9.45;;;12.80;95.00;;;;;;5051769;28;20029;-67
2021/09/20 06:45:54;;;;;;;14.02;9.30;;;12.80;95.10;;;;;;5051891;28;20040;-66
2021/09/20 06:48:20;;;;;;;12.35;8.70;;;12.80;95.00;;;;;;5051431;28;20516;-67
2021/09/20 06:50:45;;;;;;;11.98;9.18;;;12.80;95.10;;;;;;5052479;28;20613;-67
2021/09/20 06:53:11;;;;;;;12.63;9.00;;;12.90;95.10;;;;;;5023492;28;20091;-67
2021/09/20 06:55:37;;;;;;;12.00;8.57;;;12.90;95.30;;;;;;5038532;28;20033;-67
2021/09/20 06:58:03;;;;;;;12.02;8.55;;;12.80;95.00;;;;;;5052304;28;20032;-67
2021/09/20 07:00:32;;;;;;;14.07;8.68;;;12.80;95.00;;;;;;5049074;28;20108;-67
2021/09/20 07:02:58;;;;;;;15.20;9.10;;;12.80;95.00;;;;;;5048388;28;20017;-67
2021/09/20 07:05:23;;;;;;;17.42;12.30;;;12.80;95.00;;;;;;5031997;28;20116;-66
2021/09/20 07:07:49;;;;;;;17.05;10.00;;;12.80;95.10;;;;;;5046759;28;20493;-66
2021/09/20 07:10:16;;;;;;;11.02;8.43;;;12.90;95.10;;;;;;5048518;28;20033;-67
2021/09/20 07:12:43;;;;;;;13.65;9.43;;;12.80;95.10;;;;;;5048694;28;20420;-66
2021/09/20 07:15:11;;;;;;;13.00;8.82;;;12.90;95.10;;;;;;5051968;28;20023;-65
2021/09/20 07:17:36;;;;;;;13.60;9.10;;;12.90;95.10;;;;;;5050043;28;20040;-65
2021/09/20 07:20:04;;;;;;;11.48;8.85;;;12.90;95.00;;;;;;5047228;28;20424;-67
2021/09/20 07:22:29;;;;;;;12.68;9.20;;;12.90;95.10;;;;;;5031271;28;20028;-66
2021/09/20 07:24:55;;;;;;;11.55;8.57;;;12.90;95.10;;;;;;5048526;28;20070;-66
2021/09/20 07:27:21;;;;;;;15.63;9.50;;;12.90;95.10;;;;;;5049981;28;20438;-65
2021/09/20 07:29:47;;;;;;;12.65;8.63;;;12.90;95.10;;;;;;5049975;28;20022;-66
2021/09/20 07:32:12;;;;;;;15.10;9.35;;;13.00;95.00;;;;;;5050714;28;20068;-66
2021/09/20 07:34:38;;;;;;;11.48;9.05;;;12.90;95.00;;;;;;5049723;28;20139;-66
2021/09/20 07:37:04;;;;;;;14.93;8.85;;;12.90;95.00;;;;;;5049328;28;20097;-66
2021/09/20 07:39:30;;;;;;;12.27;8.75;;;13.00;95.10;;;;;;5048143;28;20214;-66
2021/09/20 07:41:56;;;;;;;13.30;9.15;;;13.00;95.10;;;;;;5047000;28;20041;-66
2021/09/20 07:44:22;;;;;;;11.27;8.10;;;13.00;95.10;;;;;;5046156;28;20077;-67
2021/09/20 07:46:48;;;;;;;12.63;8.98;;;13.00;95.10;;;;;;5045276;28;20037;-67
2021/09/20 07:49:13;;;;;;;11.07;8.88;;;13.00;95.10;;;;;;5050248;28;20036;-67
2021/09/20 07:51:39;;;;;;;14.77;9.48;;;13.10;95.20;;;;;;5049475;28;20029;-67
2021/09/20 07:54:04;;;;;;;11.25;8.90;;;13.10;95.30;;;;;;5042912;28;20095;-67
2021/09/20 07:56:31;;;;;;;13.05;8.65;;;13.10;95.10;;;;;;5041546;28;20772;-66
2021/09/20 07:58:59;;;;;;;12.55;8.93;;;13.10;95.10;;;;;;5042066;28;20418;-67
2021/09/20 08:01:24;;;;;;;16.45;8.90;;;13.10;95.10;;;;;;5047507;28;20385;-67
2021/09/20 08:03:50;;;;;;;11.88;8.43;;;13.10;95.10;;;;;;5049494;28;20029;-67
2021/09/20 08:06:17;;;;;;;11.55;8.80;;;13.10;95.10;;;;;;5031439;28;20420;-67
2021/09/20 08:08:43;;;;;;;12.25;8.65;;;13.20;95.20;;;;;;5031294;28;20036;-66
2021/09/20 08:11:09;;;;;;;13.93;8.88;;;13.20;95.10;;;;;;5048222;28;20074;-66
2021/09/20 08:13:35;;;;;;;13.32;8.60;;;13.20;95.10;;;;;;5049903;28;20029;-67
2021/09/20 08:16:01;;;;;;;13.38;8.77;;;13.20;95.10;;;;;;5032078;28;20043;-67
2021/09/20 08:18:26;;;;;;;14.38;8.75;;;13.20;95.10;;;;;;5050536;28;20438;-66
2021/09/20 08:20:53;;;;;;;13.48;8.90;;;13.20;95.00;;;;;;5039457;28;20100;-67
2021/09/20 08:23:19;;;;;;;12.82;8.40;;;13.20;95.00;;;;;;5038004;28;20052;-67
2021/09/20 08:25:44;;;;;;;16.67;9.10;;;13.20;95.00;;;;;;5043643;28;20064;-67
2021/09/20 08:28:11;;;;;;;14.35;9.07;;;13.20;95.00;;;;;;5048587;28;20155;-68
2021/09/20 08:30:36;;;;;;;15.15;8.40;;;13.20;95.10;;;;;;5049681;28;20020;-67
2021/09/20 08:33:02;;;;;;;12.93;9.00;;;13.20;95.10;;;;;;5048043;28;20025;-67
2021/09/20 08:35:28;;;;;;;13.23;8.68;;;13.30;95.10;;;;;;5048446;28;20453;-67
2021/09/20 08:37:54;;;;;;;12.80;8.80;;;13.30;95.10;;;;;;5024406;28;20021;-68
2021/09/20 08:40:20;;;;;;;15.07;8.68;;;13.30;95.10;;;;;;5033537;28;20087;-67
2021/09/20 08:42:47;;;;;;;19.27;10.80;;;13.30;95.10;;;;;;5045531;28;20032;-67
2021/09/20 08:45:20;;;;;;;12.73;9.38;;;13.30;95.10;;;;;;5043550;28;20024;-67
2021/09/20 08:47:48;;;;;;;13.32;9.07;;;13.30;95.10;;;;;;5037261;28;20118;-67
2021/09/20 08:50:17;;;;;;;12.23;8.43;;;13.30;95.10;;;;;;5044326;28;20056;-67
2021/09/20 08:52:43;;;;;;;12.15;8.10;;;13.40;95.10;;;;;;5048019;28;20024;-68
2021/09/20 08:55:09;;;;;;;13.50;8.77;;;13.40;95.40;;;;;;5043271;28;20315;-68
2021/09/20 08:57:35;;;;;;;11.75;8.52;;;13.40;95.10;;;;;;5042490;28;20537;-67
2021/09/20 09:00:03;;;;;;;12.70;9.00;;;13.40;95.10;;;;;;5044780;28;20112;-66
2021/09/20 09:02:31;;;;;;;10.68;8.30;;;13.40;95.10;;;;;;5043687;28;20032;-67
2021/09/20 09:05:24;;;;;;;12.18;8.40;;;13.40;95.30;;;;;;5042645;28;20025;-67
2021/09/20 09:07:57;;;;;;;13.45;9.15;;;13.40;95.00;;;;;;5044870;28;20043;-66
2021/09/20 09:10:25;;;;;;;13.80;8.95;;;13.40;95.00;;;;;;5048945;28;20547;-67
2021/09/20 09:12:52;;;;;;;11.57;8.93;;;13.40;95.00;;;;;;5048951;28;20096;-67
2021/09/20 09:15:20;;;;;;;10.63;8.52;;;13.50;95.00;;;;;;5050130;28;20092;-67
2021/09/20 09:17:48;;;;;;;13.40;8.55;;;13.50;95.10;;;;;;5049082;28;20029;-67
2021/09/20 09:20:24;;;;;;;14.75;8.75;;;13.50;95.10;;;;;;5049061;28;20040;-67
2021/09/20 09:22:56;;;;;;;13.38;8.75;;;13.60;95.10;;;;;;5030790;28;20029;-67
2021/09/20 09:25:27;;;;;;;12.13;8.95;;;13.60;95.10;;;;;;5032151;28;20044;-67
2021/09/20 09:27:56;;;;;;;10.95;8.48;;;13.60;95.10;;;;;;5026170;28;20020;-67
2021/09/20 09:30:24;;;;;;;10.55;8.55;;;13.70;95.10;;;;;;5016584;28;20030;-67
2021/09/20 09:33:08;;;;;;;15.05;9.13;;;13.70;95.10;;;;;;5029426;28;20517;-67
2021/09/20 09:35:35;;;;;;;12.98;8.82;;;13.70;95.00;;;;;;5047275;28;20028;-67
2021/09/20 09:38:04;;;;;;;11.38;8.85;;;13.70;95.00;;;;;;5049244;28;20029;-67
2021/09/20 09:40:42;;;;;;;13.10;8.50;;;13.80;95.00;;;;;;5049181;28;20029;-67
2021/09/20 09:43:08;;;;;;;13.05;9.13;;;13.80;95.00;;;;;;5048264;28;20025;-67
2021/09/20 09:45:34;;;;;;;12.10;8.85;;;13.80;95.00;;;;;;5049953;28;20021;-67
2021/09/20 09:48:08;;;;;;;12.50;8.80;;;13.80;95.00;;;;;;5049706;28;20036;-67
2021/09/20 09:50:37;;;;;;;13.02;8.48;;;13.80;95.00;;;;;;5049831;28;20021;-67
2021/09/20 09:53:03;;;;;;;16.95;9.10;;;13.90;94.90;;;;;;5062618;22;20074;-66
2021/09/20 09:55:31;;;;;;;12.75;8.73;;;13.90;94.90;;;;;;5060041;28;20428;-66
2021/09/20 09:58:12;;;;;;;12.07;8.73;;;13.90;94.90;;;;;;5069925;28;20100;-66
2021/09/20 10:00:38;;;;;;;13.27;8.90;;;13.90;94.80;;;;;;5059970;28;20021;-66
2021/09/20 10:03:04;;;;;;;12.32;8.82;;;13.90;94.90;;;;;;5073916;28;20078;-66
2021/09/20 10:05:30;;;;;;;11.50;8.90;;;13.90;94.80;;;;;;5090652;28;20550;-66
2021/09/20 10:07:56;;;;;;;12.23;9.45;;;14.00;94.80;;;;;;5075001;28;20112;-66
2021/09/20 10:10:23;;;;;;;12.60;8.60;;;14.00;94.80;;;;;;5066898;28;20029;-66
2021/09/20 10:12:51;;;;;;;16.13;9.02;;;14.00;94.80;;;;;;5056393;28;20016;-67
2021/09/20 10:15:19;;;;;;;10.35;8.27;;;14.10;94.80;;;;;;5070283;28;20476;-66
2021/09/20 10:17:46;;;;;;;11.82;8.40;;;14.10;94.70;;;;;;5061391;28;20499;-66
2021/09/20 10:20:18;;;;;;;16.02;10.20;;;14.10;94.70;;;;;;5053316;28;20044;-66
2021/09/20 10:22:44;;;;;;;13.20;8.60;;;14.10;94.70;;;;;;5055423;28;20021;-66
2021/09/20 10:25:13;;;;;;;21.27;9.40;;;14.10;94.70;;;;;;5053132;28;20520;-66
2021/09/20 10:27:39;;;;;;;13.65;8.43;;;14.10;94.70;;;;;;5053615;28;20037;-66
2021/09/20 10:30:23;;;;;;;15.88;9.40;;;14.20;94.70;;;;;;5038061;28;20040;-66
2021/09/20 10:32:54;;;;;;;12.50;9.05;;;14.20;94.60;;;;;;5052162;28;20108;-66
2021/09/20 10:35:29;;;;;;;14.07;9.32;;;14.30;94.60;;;;;;5053523;28;20132;-66
2021/09/20 10:38:11;;;;;;;11.48;8.52;;;14.30;94.60;;;;;;5053477;28;20036;-66
2021/09/20 10:40:36;;;;;;;13.07;9.15;;;14.40;94.60;;;;;;5070774;28;20032;-66
2021/09/20 10:43:04;;;;;;;13.50;9.02;;;14.40;94.60;;;;;;5072154;28;20087;-66
2021/09/20 10:45:43;;;;;;;12.35;8.82;;;14.50;94.60;;;;;;5072588;28;20090;-66
2021/09/20 10:48:35;;;;;;;12.80;9.57;;;14.50;94.40;;;;;;5057263;28;20033;-66
2021/09/20 10:51:12;;;;;;;15.20;8.75;;;14.50;94.40;;;;;;5054366;28;20385;-66
2021/09/20 10:53:39;;;;;;;13.18;8.80;;;14.50;94.40;;;;;;5033609;28;20025;-66
2021/09/20 10:56:06;;;;;;;13.85;9.63;;;14.50;94.40;;;;;;5052166;28;20067;-66
2021/09/20 10:58:40;;;;;;;12.23;8.98;;;14.60;94.40;;;;;;5052617;28;20021;-65
2021/09/20 11:01:11;;;;;;;14.52;9.20;;;14.60;94.40;;;;;;5059889;28;20129;-66
2021/09/20 11:03:52;;;;;;;12.80;9.90;;;14.60;94.40;;;;;;5082913;28;20095;-66
2021/09/20 11:06:25;;;;;;;14.10;9.70;;;14.60;94.30;;;;;;5092587;28;20036;-66
2021/09/20 11:09:02;;;;;;;13.35;8.98;;;14.60;94.30;;;;;;5074587;28;20060;-66
2021/09/20 11:11:37;;;;;;;17.42;10.10;;;14.70;94.30;;;;;;5071415;28;20055;-66
2021/09/20 11:14:10;;;;;;;15.07;9.88;;;14.70;94.40;;;;;;5051791;28;20389;-66
2021/09/20 11:16:52;;;;;;;19.75;9.93;;;14.70;94.30;;;;;;5051801;28;20029;-67
2021/09/20 11:19:33;;;;;;;15.38;9.95;;;14.70;94.30;;;;;;5055829;28;20074;-66
2021/09/20 11:22:17;;;;;;;14.63;10.55;;;14.70;94.10;;;;;;5058012;28;20024;-66
2021/09/20 11:24:44;;;;;;;17.40;10.65;;;14.70;94.10;;;;;;5048494;28;20362;-66
2021/09/20 11:27:15;;;;;;;14.85;10.25;;;14.70;94.10;;;;;;5066760;28;20036;-66
2021/09/20 11:29:47;;;;;;;16.08;11.55;;;14.70;94.10;;;;;;5052086;28;20033;-66
2021/09/20 11:32:13;;;;;;;17.30;10.52;;;14.70;94.10;;;;;;5052348;28;20041;-66
2021/09/20 11:34:48;;;;;;;16.60;11.30;;;14.70;94.00;;;;;;5055936;28;20051;-66
2021/09/20 11:37:21;;;;;;;14.85;11.02;;;14.70;94.00;;;;;;5067868;28;20033;-67
2021/09/20 11:40:01;;;;;;;16.08;10.85;;;14.70;94.00;;;;;;5056758;28;20075;-66
2021/09/20 11:42:35;;;;;;;14.73;10.25;;;14.70;94.00;;;;;;5051676;28;20454;-66
2021/09/20 11:45:06;;;;;;;16.10;10.98;;;14.70;93.80;;;;;;5051728;28;20452;-66
2021/09/20 11:47:35;;;;;;;16.55;9.93;;;14.70;93.90;;;;;;5066952;28;20029;-66
2021/09/20 11:50:06;;;;;;;13.90;10.45;;;14.80;93.90;;;;;;5069572;28;20388;-66
2021/09/20 11:52:34;;;;;;;14.32;10.00;;;14.80;93.80;;;;;;5056320;28;20087;-66
2021/09/20 11:55:00;;;;;;;15.25;10.38;;;14.80;93.70;;;;;;5051314;28;20033;-66
2021/09/20 11:57:29;;;;;;;13.45;10.15;;;14.80;93.80;;;;;;5053455;28;20028;-66
2021/09/20 12:00:01;;;;;;;14.00;10.55;;;14.90;93.80;;;;;;5071223;28;20034;-67
2021/09/20 12:02:31;;;;;;;14.75;10.75;;;15.00;93.70;;;;;;5071149;28;20158;-66
2021/09/20 12:04:57;;;;;;;13.80;10.35;;;15.00;93.60;;;;;;5026187;28;20112;-65
2021/09/20 12:07:27;;;;;;;17.23;10.32;;;15.10;93.70;;;;;;5077024;28;20039;-66
2021/09/20 12:09:57;;;;;;;14.95;10.68;;;15.20;93.60;;;;;;5072991;28;20036;-66
2021/09/20 12:12:31;;;;;;;12.90;9.90;;;15.20;93.50;;;;;;5071292;28;20021;-67
2021/09/20 12:15:11;;;;;;;14.32;10.15;;;15.30;93.30;;;;;;5059298;28;20365;-66
2021/09/20 12:17:53;;;;;;;13.27;9.65;;;15.30;93.30;;;;;;5056724;28;20481;-66
2021/09/20 12:20:46;;;;;;;12.80;9.95;;;15.40;93.20;;;;;;5053189;28;20025;-66
2021/09/20 12:23:19;;;;;;;13.27;9.77;;;15.40;93.20;;;;;;5050090;28;20061;-66
2021/09/20 12:25:59;;;;;;;16.17;10.07;;;15.50;93.20;;;;;;5051604;28;20028;-66
2021/09/20 12:28:41;;;;;;;14.10;9.13;;;15.50;93.20;;;;;;5050991;28;20040;-66
2021/09/20 12:31:15;;;;;;;13.10;9.68;;;15.60;93.20;;;;;;5051072;28;20056;-66
2021/09/20 12:34:00;;;;;;;11.77;9.02;;;15.70;93.00;;;;;;5050190;28;20040;-66
2021/09/20 12:36:37;;;;;;;13.07;9.15;;;15.70;92.90;;;;;;5032857;28;20036;-66
2021/09/20 12:39:27;;;;;;;12.20;8.80;;;15.80;92.90;;;;;;5051068;28;20021;-66
2021/09/20 12:41:58;;;;;;;13.82;9.40;;;15.80;92.80;;;;;;5052217;28;20092;-66